Time;durP1;ratioP1;P1;durP2;ratioP2;P2;SDS_P1;SDS_P2;PMS_P1;PMS_P2;Temp;Humidity;BMP_temperature;BMP_pressure;BME280_temperature;BME280_humidity;BME280_pressure;Samples;Min_cycle;Max_cycle;Signal;HPM_P1;HPM_P2
2022/07/09 00:01:48;;;;;;;18.23;17.23;;;;;;;-141.02;100.00;55844.97;5072211;28;20195;-70
2022/07/09 00:04:15;;;;;;;18.20;17.20;;;;;;;-141.02;100.00;55844.97;5072491;28;20630;-70
2022/07/09 00:06:42;;;;;;;18.85;17.85;;;;;;;-141.02;100.00;55844.97;5072403;28;20199;-72
2022/07/09 00:09:09;;;;;;;18.45;17.45;;;;;;;-141.02;100.00;55844.97;5072990;28;20194;-71
2022/07/09 00:11:36;;;;;;;19.20;18.10;;;;;;;-141.02;100.00;55844.97;5072079;28;20202;-70
2022/07/09 00:14:03;;;;;;;18.00;17.00;;;;;;;-141.02;100.00;55844.97;5072399;28;20255;-71
2022/07/09 00:16:32;;;;;;;17.00;16.10;;;;;;;-141.02;100.00;55844.97;5072013;28;20205;-70
2022/07/09 00:18:59;;;;;;;18.38;17.38;;;;;;;-141.02;100.00;55844.97;5072237;28;20233;-70
2022/07/09 00:21:26;;;;;;;19.20;18.20;;;;;;;-141.02;100.00;55844.97;5072280;28;20198;-70
2022/07/09 00:23:53;;;;;;;18.90;17.90;;;;;;;-141.02;100.00;55844.97;5072265;28;20194;-70
2022/07/09 00:26:20;;;;;;;18.88;17.88;;;;;;;-141.02;100.00;55844.97;5071943;28;20206;-73
2022/07/09 00:28:47;;;;;;;19.80;18.70;;;;;;;-141.02;100.00;55844.97;5071851;28;20194;-70
2022/07/09 00:31:14;;;;;;;19.80;18.80;;;;;;;-141.02;100.00;55844.97;5071907;28;20198;-70
2022/07/09 00:33:43;;;;;;;20.00;18.90;;;;;;;-141.02;100.00;55844.97;5072719;28;20201;-70
2022/07/09 00:36:10;;;;;;;20.40;19.30;;;;;;;-141.02;100.00;55844.97;5072131;28;20198;-71
2022/07/09 00:38:37;;;;;;;21.98;20.80;;;;;;;-141.02;100.00;55844.97;5071771;28;20708;-71
2022/07/09 00:41:04;;;;;;;21.05;19.95;;;;;;;-141.02;100.00;55844.97;5072065;28;20194;-71
2022/07/09 00:43:31;;;;;;;21.13;20.02;;;;;;;-141.02;100.00;55844.97;5071760;28;20681;-70
2022/07/09 00:45:59;;;;;;;19.50;18.40;;;;;;;-141.02;100.00;55844.97;5072062;28;20198;-71
2022/07/09 00:48:26;;;;;;;21.13;19.92;;;;;;;-141.02;100.00;55844.97;5071688;28;20202;-70
2022/07/09 00:50:55;;;;;;;21.95;20.75;;;;;;;-141.02;100.00;55844.97;5072056;28;20194;-71
2022/07/09 00:53:26;;;;;;;20.75;19.65;;;;;;;-141.02;100.00;55844.97;5072468;28;20631;-71
2022/07/09 00:55:54;;;;;;;20.25;19.05;;;;;;;-141.02;100.00;55844.97;5071655;28;20295;-72
2022/07/09 00:58:23;;;;;;;18.10;17.10;;;;;;;-141.02;100.00;55844.97;5071806;28;20412;-71
2022/07/09 01:00:50;;;;;;;17.67;16.77;;;;;;;-141.02;100.00;55844.97;5071922;28;20244;-72
2022/07/09 01:03:17;;;;;;;17.83;16.85;;;;;;;-141.02;100.00;55844.97;5071870;28;20199;-72
2022/07/09 01:05:44;;;;;;;17.73;16.83;;;;;;;-141.02;100.00;55844.97;5074943;28;20194;-76
2022/07/09 01:08:13;;;;;;;16.85;16.05;;;;;;;-141.02;100.00;55844.97;5075716;28;20233;-75
2022/07/09 01:10:41;;;;;;;16.95;16.25;;;;;;;-141.02;100.00;55844.97;5075384;28;20202;-76
2022/07/09 01:13:08;;;;;;;17.15;16.45;;;;;;;-141.02;100.00;55844.97;5075701;28;20619;-72
2022/07/09 01:15:35;;;;;;;16.70;16.00;;;;;;;-141.02;100.00;55844.97;5075559;28;20198;-75
2022/07/09 01:18:03;;;;;;;17.10;16.40;;;;;;;-141.02;100.00;55844.97;5075250;28;20296;-72
2022/07/09 01:20:32;;;;;;;18.20;17.40;;;;;;;-141.02;100.00;55844.97;5075438;28;20230;-75
2022/07/09 01:22:59;;;;;;;18.27;17.48;;;;;;;-141.02;100.00;55844.97;5075176;28;20286;-76
2022/07/09 01:25:34;;;;;;;17.17;16.48;;;;;;;-141.02;100.00;55844.97;5075084;28;20195;-76
2022/07/09 01:28:02;;;;;;;16.95;16.30;;;;;;;-141.02;100.00;55844.97;5075390;28;20186;-74
2022/07/09 01:30:29;;;;;;;17.35;16.65;;;;;;;-141.02;100.00;55844.97;5075041;28;20237;-76
2022/07/09 01:32:57;;;;;;;16.58;15.88;;;;;;;-141.02;100.00;55844.97;5075250;28;20657;-75
2022/07/09 01:35:24;;;;;;;16.58;15.88;;;;;;;-141.02;100.00;55844.97;5075267;28;20230;-75
2022/07/09 01:37:53;;;;;;;16.23;15.52;;;;;;;-141.02;100.00;55844.97;5075251;28;20194;-75
2022/07/09 01:40:20;;;;;;;14.70;14.10;;;;;;;-141.02;100.00;55844.97;5075104;28;20226;-74
2022/07/09 01:42:48;;;;;;;16.45;15.75;;;;;;;-141.02;100.00;55844.97;5074837;28;20255;-74
2022/07/09 01:45:16;;;;;;;16.90;16.10;;;;;;;-141.02;100.00;55844.97;5074739;28;20201;-74
2022/07/09 01:47:43;;;;;;;16.58;15.82;;;;;;;-141.02;100.00;55844.97;5074965;28;20198;-74
2022/07/09 01:50:11;;;;;;;17.60;16.70;;;;;;;-141.02;100.00;55844.97;5074927;28;20605;-74
2022/07/09 01:52:38;;;;;;;18.60;17.60;;;;;;;-141.02;100.00;55844.97;5074689;28;20661;-74
2022/07/09 01:55:08;;;;;;;19.42;18.42;;;;;;;-141.02;100.00;55844.97;5074298;28;20272;-71
2022/07/09 01:57:35;;;;;;;19.15;18.15;;;;;;;-141.02;100.00;55844.97;5075236;28;20620;-74
2022/07/09 02:00:03;;;;;;;19.20;18.20;;;;;;;-141.02;100.00;55844.97;5074430;28;20233;-71
2022/07/09 02:02:30;;;;;;;17.60;16.70;;;;;;;-141.02;100.00;55844.97;5074413;28;20230;-74
2022/07/09 02:04:58;;;;;;;16.50;15.70;;;;;;;-141.02;100.00;55844.97;5074737;28;20205;-74
2022/07/09 02:07:25;;;;;;;16.10;15.40;;;;;;;-141.02;100.00;55844.97;5074354;28;20198;-73
2022/07/09 02:09:52;;;;;;;16.73;15.93;;;;;;;-141.02;100.00;55844.97;5074364;28;20191;-74
2022/07/09 02:12:21;;;;;;;15.88;15.18;;;;;;;-141.02;100.00;55844.97;5074615;28;20222;-74
2022/07/09 02:14:49;;;;;;;17.48;16.67;;;;;;;-141.02;100.00;55844.97;5074464;28;20203;-74
2022/07/09 02:17:16;;;;;;;16.77;15.98;;;;;;;-141.02;100.00;55844.97;5074494;28;20202;-73
2022/07/09 02:19:44;;;;;;;16.83;16.02;;;;;;;-141.02;100.00;55844.97;5074032;28;20226;-74
2022/07/09 02:22:11;;;;;;;17.40;16.50;;;;;;;-141.02;100.00;55844.97;5074124;28;20201;-71
2022/07/09 02:24:38;;;;;;;17.63;16.73;;;;;;;-141.02;100.00;55844.97;5074402;28;20220;-74
2022/07/09 02:27:06;;;;;;;17.83;16.92;;;;;;;-141.02;100.00;55844.97;5074801;28;20595;-71
2022/07/09 02:29:34;;;;;;;18.42;17.42;;;;;;;-141.02;100.00;55844.97;5074275;28;20205;-74
2022/07/09 02:32:01;;;;;;;17.02;16.13;;;;;;;-141.02;100.00;55844.97;5074150;28;20198;-75
2022/07/09 02:34:28;;;;;;;18.60;17.60;;;;;;;-141.02;100.00;55844.97;5073885;28;20194;-74
2022/07/09 02:36:55;;;;;;;19.20;18.20;;;;;;;-141.02;100.00;55844.97;5073765;28;20194;-74
2022/07/09 02:39:22;;;;;;;18.90;17.90;;;;;;;-141.02;100.00;55844.97;5073979;28;20229;-74
2022/07/09 02:41:50;;;;;;;19.50;18.40;;;;;;;-141.02;100.00;55844.97;5074086;28;20198;-74
2022/07/09 02:44:17;;;;;;;19.90;18.80;;;;;;;-141.02;100.00;55844.97;5073955;28;20247;-74
2022/07/09 02:46:45;;;;;;;20.17;19.05;;;;;;;-141.02;100.00;55844.97;5073664;28;20198;-75
2022/07/09 02:49:13;;;;;;;19.75;18.65;;;;;;;-141.02;100.00;55844.97;5073522;28;20673;-75
2022/07/09 02:51:40;;;;;;;20.88;19.67;;;;;;;-141.02;100.00;55844.97;5073515;28;20198;-74
2022/07/09 02:54:07;;;;;;;20.40;19.20;;;;;;;-141.02;100.00;55844.97;5074340;28;20191;-74
2022/07/09 02:56:34;;;;;;;20.15;18.95;;;;;;;-141.02;100.00;55844.97;5073214;28;20222;-75
2022/07/09 02:59:02;;;;;;;20.88;19.63;;;;;;;-141.02;100.00;55844.97;5073611;28;20222;-74
2022/07/09 03:01:29;;;;;;;21.58;20.27;;;;;;;-141.02;100.00;55844.97;5073586;28;20198;-74
2022/07/09 03:03:58;;;;;;;21.30;20.00;;;;;;;-141.02;100.00;55844.97;5073591;28;20198;-74
2022/07/09 03:06:25;;;;;;;21.60;20.30;;;;;;;-141.02;100.00;55844.97;5073182;28;20226;-74
2022/07/09 03:08:52;;;;;;;20.98;19.67;;;;;;;-141.02;100.00;55844.97;5073198;28;20205;-74
2022/07/09 03:11:19;;;;;;;20.30;19.10;;;;;;;-141.02;100.00;55844.97;5073427;28;20202;-74
2022/07/09 03:13:46;;;;;;;17.13;16.15;;;;;;;-141.02;100.00;55844.97;5073340;28;20191;-75
2022/07/09 03:16:13;;;;;;;17.80;16.70;;;;;;;-141.02;100.00;55844.97;5073308;28;20198;-74
2022/07/09 03:18:41;;;;;;;18.70;17.60;;;;;;;-141.02;100.00;55844.97;5072941;28;20576;-75
2022/07/09 03:21:11;;;;;;;18.95;17.85;;;;;;;-141.02;100.00;55844.97;5073181;28;20230;-74
2022/07/09 03:23:39;;;;;;;19.50;18.30;;;;;;;-141.02;100.00;55844.97;5073262;28;20543;-74
2022/07/09 03:26:06;;;;;;;18.40;17.30;;;;;;;-141.02;100.00;55844.97;5072846;28;20276;-73
2022/07/09 03:28:34;;;;;;;19.40;18.20;;;;;;;-141.02;100.00;55844.97;5072671;28;20195;-74
2022/07/09 03:31:02;;;;;;;19.38;18.17;;;;;;;-141.02;100.00;55844.97;5072968;28;20194;-74
2022/07/09 03:33:29;;;;;;;19.52;18.33;;;;;;;-141.02;100.00;55844.97;5073013;28;20204;-74
2022/07/09 03:35:56;;;;;;;18.50;17.40;;;;;;;-141.02;100.00;55844.97;5072601;28;20198;-74
2022/07/09 03:38:25;;;;;;;18.25;17.15;;;;;;;-141.02;100.00;55844.97;5072611;28;20606;-74
2022/07/09 03:40:52;;;;;;;18.00;16.90;;;;;;;-141.02;100.00;55844.97;5072801;28;20230;-74
2022/07/09 03:43:20;;;;;;;18.25;17.15;;;;;;;-141.02;100.00;55844.97;5072545;28;20676;-75
2022/07/09 03:45:47;;;;;;;19.90;18.80;;;;;;;-141.02;100.00;55844.97;5072838;28;20204;-74
2022/07/09 03:48:14;;;;;;;18.30;17.20;;;;;;;-141.02;100.00;55844.97;5072719;28;20248;-74
2022/07/09 03:50:41;;;;;;;19.25;18.05;;;;;;;-141.02;100.00;55844.97;5072683;28;20203;-74
2022/07/09 03:53:08;;;;;;;19.30;18.10;;;;;;;-141.02;100.00;55844.97;5072285;28;20205;-74
2022/07/09 03:55:37;;;;;;;18.92;17.75;;;;;;;-141.02;100.00;55844.97;5072186;28;20227;-74
2022/07/09 03:58:04;;;;;;;19.20;18.00;;;;;;;-141.02;100.00;55844.97;5072622;28;20279;-73
2022/07/09 04:00:31;;;;;;;18.75;17.58;;;;;;;-141.02;100.00;55844.97;5072151;28;20241;-74
2022/07/09 04:02:58;;;;;;;18.60;17.50;;;;;;;-141.02;100.00;55844.97;5072564;28;20277;-74
2022/07/09 04:05:25;;;;;;;19.88;18.67;;;;;;;-141.02;100.00;55844.97;5072177;28;20289;-74
2022/07/09 04:07:53;;;;;;;19.17;17.98;;;;;;;-141.02;100.00;55844.97;5072488;28;20209;-74
2022/07/09 04:10:20;;;;;;;19.00;17.80;;;;;;;-141.02;100.00;55844.97;5072483;28;20252;-74
2022/07/09 04:12:48;;;;;;;19.65;18.52;;;;;;;-141.02;100.00;55844.97;5072378;28;20190;-74
2022/07/09 04:15:16;;;;;;;20.15;18.95;;;;;;;-141.02;100.00;55844.97;5072331;28;20198;-73
2022/07/09 04:17:43;;;;;;;19.58;18.48;;;;;;;-141.02;100.00;55844.97;5072356;28;20205;-74
2022/07/09 04:20:11;;;;;;;18.40;17.33;;;;;;;-141.02;100.00;55844.97;5072214;28;20230;-74
2022/07/09 04:22:38;;;;;;;20.13;18.92;;;;;;;-141.02;100.00;55844.97;5072234;28;20657;-74
2022/07/09 04:25:06;;;;;;;19.23;18.13;;;;;;;-141.02;100.00;55844.97;5071990;28;20550;-73
2022/07/09 04:27:35;;;;;;;19.58;18.48;;;;;;;-141.02;100.00;55844.97;5071968;28;20255;-74
2022/07/09 04:30:05;;;;;;;19.88;18.73;;;;;;;-141.02;100.00;55844.97;5072214;28;20230;-72
2022/07/09 04:32:32;;;;;;;20.30;19.10;;;;;;;-141.02;100.00;55844.97;5071940;28;20194;-73
2022/07/09 04:34:59;;;;;;;19.77;18.67;;;;;;;-141.02;100.00;55844.97;5072079;28;20268;-74
2022/07/09 04:37:26;;;;;;;19.73;18.63;;;;;;;-141.02;100.00;55844.97;5072149;28;20195;-73
2022/07/09 04:39:53;;;;;;;19.40;18.30;;;;;;;-141.02;100.00;55844.97;5073883;28;20279;-73
2022/07/09 04:42:20;;;;;;;19.10;18.00;;;;;;;-141.02;100.00;55844.97;5076004;28;20244;-73
2022/07/09 04:44:48;;;;;;;19.50;18.40;;;;;;;-141.02;100.00;55844.97;5076798;28;20194;-73
2022/07/09 04:47:16;;;;;;;19.33;18.23;;;;;;;-141.02;100.00;55844.97;5075868;28;20196;-74
2022/07/09 04:49:43;;;;;;;20.38;19.17;;;;;;;-141.02;100.00;55844.97;5075830;28;20620;-73
2022/07/09 04:52:10;;;;;;;18.17;17.17;;;;;;;-141.02;100.00;55844.97;5076080;28;20203;-73
2022/07/09 04:54:37;;;;;;;17.38;16.38;;;;;;;-141.02;100.00;55844.97;5076115;28;20202;-73
2022/07/09 04:57:06;;;;;;;17.20;16.20;;;;;;;-141.02;100.00;55844.97;5076339;28;20692;-73
2022/07/09 04:59:33;;;;;;;17.20;16.23;;;;;;;-141.02;100.00;55844.97;5075594;28;20198;-73
2022/07/09 05:02:00;;;;;;;16.75;15.85;;;;;;;-141.02;100.00;55844.97;5075728;28;20687;-73
2022/07/09 05:04:28;;;;;;;17.00;16.08;;;;;;;-141.02;100.00;55844.97;5075517;28;20243;-73
2022/07/09 05:06:55;;;;;;;15.75;14.95;;;;;;;-141.02;100.00;55844.97;5075795;28;20198;-74
2022/07/09 05:09:22;;;;;;;15.63;14.82;;;;;;;-141.02;100.00;55844.97;5076589;28;20256;-74
2022/07/09 05:11:49;;;;;;;15.45;14.65;;;;;;;-141.02;100.00;55844.97;5075784;28;20721;-73
2022/07/09 05:14:16;;;;;;;15.90;15.00;;;;;;;-141.02;100.00;55844.97;5075735;28;20195;-73
2022/07/09 05:16:45;;;;;;;16.55;15.65;;;;;;;-141.02;100.00;55844.97;5075271;28;20652;-73
2022/07/09 05:19:12;;;;;;;16.70;15.80;;;;;;;-141.02;100.00;55844.97;5075634;28;20205;-73
2022/07/09 05:21:41;;;;;;;16.63;15.68;;;;;;;-141.02;100.00;55844.97;5075462;28;20773;-73
2022/07/09 05:24:09;;;;;;;17.40;16.40;;;;;;;-141.02;100.00;55844.97;5075205;28;20202;-73
2022/07/09 05:26:36;;;;;;;17.52;16.52;;;;;;;-141.02;100.00;55844.97;5075140;28;20205;-74
2022/07/09 05:29:03;;;;;;;17.80;16.80;;;;;;;-141.02;100.00;55844.97;5075036;28;20201;-72
2022/07/09 05:31:31;;;;;;;17.70;16.70;;;;;;;-141.02;100.00;55844.97;5075352;28;20210;-74
2022/07/09 05:34:00;;;;;;;18.00;16.98;;;;;;;-141.02;100.00;55844.97;5075749;28;20255;-74
2022/07/09 05:36:28;;;;;;;18.83;17.73;;;;;;;-141.02;100.00;55844.97;5075233;28;20195;-74
2022/07/09 05:38:56;;;;;;;18.30;17.20;;;;;;;-141.02;100.00;55844.97;5075190;28;20220;-75
2022/07/09 05:41:24;;;;;;;18.95;17.85;;;;;;;-141.02;100.00;55844.97;5075161;28;20230;-74
2022/07/09 05:43:52;;;;;;;18.77;17.67;;;;;;;-141.02;100.00;55844.97;5074813;28;20252;-76
2022/07/09 05:46:19;;;;;;;19.17;18.08;;;;;;;-141.02;100.00;55844.97;5074753;28;20205;-76
2022/07/09 05:48:46;;;;;;;19.08;18.08;;;;;;;-141.02;100.00;55844.97;5074720;28;20194;-75
2022/07/09 05:51:13;;;;;;;19.02;18.02;;;;;;;-141.02;100.00;55844.97;5074571;28;20248;-75
2022/07/09 05:53:40;;;;;;;18.83;17.83;;;;;;;-141.02;100.00;55844.97;5074660;28;20231;-75
2022/07/09 05:56:09;;;;;;;18.08;17.08;;;;;;;-141.02;100.00;55844.97;5074566;28;20241;-75
2022/07/09 05:58:37;;;;;;;19.20;18.20;;;;;;;-141.02;100.00;55844.97;5074593;28;20244;-75
2022/07/09 06:01:05;;;;;;;19.45;18.35;;;;;;;-141.02;100.00;55844.97;5074434;28;20610;-75
2022/07/09 06:03:32;;;;;;;20.25;19.15;;;;;;;-141.02;100.00;55844.97;5074788;28;20194;-75
2022/07/09 06:05:59;;;;;;;20.45;19.25;;;;;;;-141.02;100.00;55844.97;5074428;28;20677;-75
2022/07/09 06:08:26;;;;;;;21.67;20.38;;;;;;;-141.02;100.00;55844.97;5074366;28;20290;-75
2022/07/09 06:10:54;;;;;;;20.33;19.23;;;;;;;-141.02;100.00;55844.97;5075191;28;20206;-76
2022/07/09 06:13:22;;;;;;;20.20;19.10;;;;;;;-141.02;100.00;55844.97;5074566;28;20202;-76
2022/07/09 06:15:50;;;;;;;19.10;18.00;;;;;;;-141.02;100.00;55844.97;5074233;28;20201;-75
2022/07/09 06:18:17;;;;;;;20.10;18.90;;;;;;;-141.02;100.00;55844.97;5074198;28;20201;-75
2022/07/09 06:20:44;;;;;;;19.65;18.55;;;;;;;-141.02;100.00;55844.97;5074042;28;20229;-75
2022/07/09 06:23:12;;;;;;;19.35;18.25;;;;;;;-141.02;100.00;55844.97;5074481;28;20260;-75
2022/07/09 06:25:39;;;;;;;20.70;19.50;;;;;;;-141.02;100.00;55844.97;5074381;28;20202;-77
2022/07/09 06:28:06;;;;;;;18.90;17.90;;;;;;;-141.02;100.00;55844.97;5074348;28;20191;-75
2022/07/09 06:30:34;;;;;;;19.30;18.30;;;;;;;-141.02;100.00;55844.97;5073993;28;20202;-75
2022/07/09 06:33:02;;;;;;;18.85;17.85;;;;;;;-141.02;100.00;55844.97;5074210;28;20195;-75
2022/07/09 06:35:30;;;;;;;18.27;17.38;;;;;;;-141.02;100.00;55844.97;5073881;28;20196;-75
2022/07/09 06:37:58;;;;;;;19.30;18.30;;;;;;;-141.02;100.00;55844.97;5073794;28;20198;-76
2022/07/09 06:40:25;;;;;;;18.10;17.15;;;;;;;-141.02;100.00;55844.97;5073755;28;20226;-75
2022/07/09 06:42:52;;;;;;;17.80;16.80;;;;;;;-141.02;100.00;55844.97;5073712;28;20695;-76
2022/07/09 06:45:19;;;;;;;18.58;17.48;;;;;;;-141.02;100.00;55844.97;5074010;28;20199;-76
2022/07/09 06:47:48;;;;;;;18.58;17.58;;;;;;;-141.02;100.00;55844.97;5073970;28;20277;-76
2022/07/09 06:50:16;;;;;;;18.27;17.27;;;;;;;-141.02;100.00;55844.97;5073870;28;20285;-76
2022/07/09 06:52:43;;;;;;;18.08;16.98;;;;;;;-141.02;100.00;55844.97;5073531;28;20201;-76
2022/07/09 06:55:10;;;;;;;18.17;17.08;;;;;;;-141.02;100.00;55844.97;5073523;28;20835;-75
2022/07/09 06:57:37;;;;;;;18.50;17.40;;;;;;;-141.02;100.00;55844.97;5073491;28;20274;-76
2022/07/09 07:00:05;;;;;;;18.55;17.55;;;;;;;-141.02;100.00;55844.97;5073303;28;20247;-75
2022/07/09 07:02:33;;;;;;;19.73;18.52;;;;;;;-141.02;100.00;55844.97;5072821;28;20194;-75
2022/07/09 07:05:01;;;;;;;19.85;18.65;;;;;;;-141.02;100.00;55844.97;5073329;28;20198;-76
2022/07/09 07:07:28;;;;;;;20.40;19.20;;;;;;;-141.02;100.00;55844.97;5074089;28;20656;-75
2022/07/09 07:09:56;;;;;;;20.65;19.45;;;;;;;-141.02;100.00;55844.97;5073188;28;20205;-76
2022/07/09 07:12:23;;;;;;;21.15;19.85;;;;;;;-141.02;100.00;55844.97;5073098;28;20606;-76
2022/07/09 07:14:50;;;;;;;21.38;20.17;;;;;;;-141.02;100.00;55844.97;5073103;28;20730;-76
2022/07/09 07:17:17;;;;;;;21.15;19.90;;;;;;;-141.02;100.00;55844.97;5073327;28;20194;-75
2022/07/09 07:19:44;;;;;;;21.40;20.10;;;;;;;-141.02;100.00;55844.97;5073279;28;20587;-75
2022/07/09 07:22:13;;;;;;;21.00;19.80;;;;;;;-141.02;100.00;55844.97;5072900;28;20246;-75
2022/07/09 07:24:40;;;;;;;21.00;19.73;;;;;;;-141.02;100.00;55844.97;5073229;28;20543;-75
2022/07/09 07:27:07;;;;;;;20.90;19.70;;;;;;;-141.02;100.00;55844.97;5072856;28;20191;-74
2022/07/09 07:29:34;;;;;;;19.95;18.75;;;;;;;-141.02;100.00;55844.97;5072804;28;20228;-75
2022/07/09 07:32:01;;;;;;;18.98;17.88;;;;;;;-141.02;100.00;55844.97;5073029;28;20202;-73
2022/07/09 07:34:28;;;;;;;18.83;17.73;;;;;;;-141.02;100.00;55844.97;5072711;28;20251;-74
2022/07/09 07:36:55;;;;;;;19.13;18.02;;;;;;;-141.02;100.00;55844.97;5073447;28;20238;-74
2022/07/09 07:39:26;;;;;;;18.52;17.48;;;;;;;-141.02;100.00;55844.97;5072986;28;20229;-74
2022/07/09 07:41:53;;;;;;;19.02;17.92;;;;;;;-141.02;100.00;55844.97;5072871;28;20214;-75
2022/07/09 07:44:22;;;;;;;17.90;16.90;;;;;;;-141.02;100.00;55844.97;5072547;28;20657;-75
2022/07/09 07:46:50;;;;;;;17.63;16.73;;;;;;;-141.02;100.00;55844.97;5072459;28;20561;-76
2022/07/09 07:49:17;;;;;;;16.77;15.88;;;;;;;-141.02;100.00;55844.97;5072677;28;20255;-76
2022/07/09 07:51:45;;;;;;;15.70;15.00;;;;;;;-141.02;100.00;55844.97;5072420;28;20198;-76
2022/07/09 07:54:12;;;;;;;15.43;14.73;;;;;;;-141.02;100.00;55844.97;5072609;28;20650;-75
2022/07/09 07:56:41;;;;;;;15.40;14.60;;;;;;;-141.02;100.00;55844.97;5072238;28;20226;-75
2022/07/09 07:59:08;;;;;;;15.32;14.52;;;;;;;-141.02;100.00;55844.97;5072622;28;20199;-75
2022/07/09 08:01:36;;;;;;;15.88;14.98;;;;;;;-141.02;100.00;55844.97;5072185;28;20631;-76
2022/07/09 08:04:04;;;;;;;16.83;15.82;;;;;;;-141.02;100.00;55844.97;5072203;28;20198;-76
2022/07/09 08:06:31;;;;;;;16.25;15.25;;;;;;;-141.02;100.00;55844.97;5072490;28;20221;-76
2022/07/09 08:08:58;;;;;;;17.85;16.65;;;;;;;-141.02;100.00;55844.97;5072104;28;20248;-75
2022/07/09 08:11:25;;;;;;;19.73;18.33;;;;;;;-141.02;100.00;55844.97;5072397;28;20203;-75
2022/07/09 08:13:54;;;;;;;21.17;19.67;;;;;;;-141.02;100.00;55844.97;5071955;28;20194;-75
2022/07/09 08:16:21;;;;;;;21.60;20.00;;;;;;;-141.02;100.00;55844.97;5072438;28;20255;-75
2022/07/09 08:18:48;;;;;;;22.83;21.23;;;;;;;-141.02;100.00;55844.97;5072343;28;20202;-75
2022/07/09 08:21:16;;;;;;;24.70;22.90;;;;;;;-141.02;100.00;55844.97;5072246;28;20230;-75
2022/07/09 08:26:28;;;;;;;22.15;20.55;;;;;;;-141.02;100.00;55844.97;5072074;28;20209;-74
2022/07/09 08:28:57;;;;;;;24.23;22.52;;;;;;;-141.02;100.00;55844.97;5071914;28;20418;-75
2022/07/09 08:31:25;;;;;;;25.05;23.35;;;;;;;-141.02;100.00;55844.97;5071984;28;20230;-76
2022/07/09 08:33:52;;;;;;;24.45;22.85;;;;;;;-141.02;100.00;55844.97;5071838;28;20251;-75
2022/07/09 08:36:19;;;;;;;21.52;20.23;;;;;;;-141.02;100.00;55844.97;5071891;28;20245;-76
2022/07/09 08:38:49;;;;;;;21.02;19.83;;;;;;;-141.02;100.00;55844.97;5072166;28;20229;-76
2022/07/09 08:41:19;;;;;;;20.20;19.00;;;;;;;-141.02;100.00;55844.97;5071744;28;20226;-76
2022/07/09 08:43:50;;;;;;;20.17;18.98;;;;;;;-141.02;100.00;55844.97;5071799;28;20198;-76
2022/07/09 08:46:19;;;;;;;19.75;18.58;;;;;;;-141.02;100.00;55844.97;5071787;28;20191;-75
2022/07/09 08:48:47;;;;;;;18.95;17.85;;;;;;;-141.02;100.00;55844.97;5072030;28;20569;-75
2022/07/09 08:51:14;;;;;;;19.20;18.10;;;;;;;-141.02;100.00;55844.97;5071979;28;20194;-76
2022/07/09 08:53:44;;;;;;;18.90;17.80;;;;;;;-141.02;100.00;55844.97;5071748;28;20198;-75
2022/07/09 08:56:12;;;;;;;19.88;18.70;;;;;;;-141.02;100.00;55844.97;5071609;28;20230;-76
2022/07/09 08:58:40;;;;;;;21.45;20.25;;;;;;;-141.02;100.00;55844.97;5072052;28;20281;-75
2022/07/09 09:01:08;;;;;;;22.55;21.25;;;;;;;-141.02;100.00;55844.97;5071890;28;20237;-75
2022/07/09 09:03:36;;;;;;;21.60;20.40;;;;;;;-141.02;100.00;55844.97;5071972;28;20230;-74
2022/07/09 09:06:05;;;;;;;20.90;19.67;;;;;;;-141.02;100.00;55844.97;5071878;28;20199;-74
2022/07/09 09:08:36;;;;;;;20.98;19.67;;;;;;;-141.02;100.00;55844.97;5071791;28;20697;-75
2022/07/09 09:11:04;;;;;;;21.75;20.55;;;;;;;-141.02;100.00;55844.97;5071886;28;20198;-75
2022/07/09 09:13:32;;;;;;;20.35;19.25;;;;;;;-141.02;100.00;55844.97;5071476;28;20195;-75
2022/07/09 09:16:06;;;;;;;20.75;19.65;;;;;;;-141.02;100.00;55844.97;5071756;28;20198;-75
2022/07/09 09:18:37;;;;;;;21.70;20.40;;;;;;;-141.02;100.00;55844.97;5071769;28;20202;-75
2022/07/09 09:21:08;;;;;;;18.55;17.55;;;;;;;-141.02;100.00;55844.97;5071678;28;20604;-75
2022/07/09 09:23:43;;;;;;;18.75;17.75;;;;;;;-141.02;100.00;55844.97;5071729;28;20237;-76
2022/07/09 09:26:15;;;;;;;19.20;18.20;;;;;;;-141.02;100.00;55844.97;5073719;28;20190;-75
2022/07/09 09:28:50;;;;;;;19.67;18.67;;;;;;;-141.02;100.00;55844.97;5075438;28;20244;-75
2022/07/09 09:31:22;;;;;;;18.50;17.50;;;;;;;-141.02;100.00;55844.97;5075390;28;20251;-75
2022/07/09 09:33:51;;;;;;;18.08;17.08;;;;;;;-141.02;100.00;55844.97;5075503;28;20244;-75
2022/07/09 09:36:35;;;;;;;19.00;18.00;;;;;;;-141.02;100.00;55844.97;5075208;28;20191;-75
2022/07/09 09:39:13;;;;;;;19.52;18.42;;;;;;;-141.02;100.00;55844.97;5075223;28;20187;-75
2022/07/09 09:41:41;;;;;;;18.80;17.80;;;;;;;-141.02;100.00;55844.97;5075139;28;20230;-75
2022/07/09 09:44:09;;;;;;;18.30;17.40;;;;;;;-141.02;100.00;55844.97;5075079;28;20252;-75
2022/07/09 09:46:38;;;;;;;17.85;17.05;;;;;;;-141.02;100.00;55844.97;5074803;28;20657;-75
2022/07/09 09:49:08;;;;;;;18.02;17.13;;;;;;;-141.02;100.00;55844.97;5074716;28;20222;-75
2022/07/09 09:51:37;;;;;;;18.13;17.23;;;;;;;-141.02;100.00;55844.97;5075082;28;20217;-75
2022/07/09 09:54:06;;;;;;;18.95;18.05;;;;;;;-141.02;100.00;55844.97;5074924;28;20276;-75
2022/07/09 09:56:34;;;;;;;19.63;18.70;;;;;;;-141.02;100.00;55844.97;5074431;28;20234;-75
2022/07/09 09:59:01;;;;;;;19.27;18.38;;;;;;;-141.02;100.00;55844.97;5074639;28;20665;-76
2022/07/09 10:01:30;;;;;;;17.70;16.80;;;;;;;-141.02;100.00;55844.97;5074374;28;20237;-76
2022/07/09 10:03:58;;;;;;;18.17;17.27;;;;;;;-141.02;100.00;55844.97;5074759;28;20779;-75
2022/07/09 10:06:27;;;;;;;19.17;18.27;;;;;;;-141.02;100.00;55844.97;5074364;28;20285;-75
2022/07/09 10:08:55;;;;;;;21.40;20.30;;;;;;;-141.02;100.00;55844.97;5074726;28;20649;-75
2022/07/09 10:11:22;;;;;;;19.48;18.48;;;;;;;-141.02;100.00;55844.97;5074617;28;20234;-74
2022/07/09 10:13:54;;;;;;;20.55;19.45;;;;;;;-141.02;100.00;55844.97;5074599;28;20298;-74
2022/07/09 10:16:33;;;;;;;21.70;20.50;;;;;;;-141.02;100.00;55844.97;5074578;28;20206;-74
2022/07/09 10:19:01;;;;;;;20.00;19.00;;;;;;;-141.02;100.00;55844.97;5074266;28;20194;-75
2022/07/09 10:21:40;;;;;;;20.48;19.38;;;;;;;-141.02;100.00;55844.97;5074360;28;20222;-74
2022/07/09 10:24:09;;;;;;;21.25;20.05;;;;;;;-141.02;100.00;55844.97;5074630;28;20272;-74
2022/07/09 10:26:39;;;;;;;21.10;19.90;;;;;;;-141.02;100.00;55844.97;5074336;28;20225;-74
2022/07/09 10:29:20;;;;;;;20.70;19.50;;;;;;;-141.02;100.00;55844.97;5074332;28;20244;-73
2022/07/09 10:31:48;;;;;;;19.80;18.70;;;;;;;-141.02;100.00;55844.97;5074324;28;20225;-75
2022/07/09 10:34:44;;;;;;;21.50;20.30;;;;;;;-141.02;100.00;55844.97;5074169;28;20195;-74
2022/07/09 10:37:13;;;;;;;20.52;19.42;;;;;;;-141.02;100.00;55844.97;5072675;28;20277;-74
2022/07/09 10:39:40;;;;;;;21.75;20.45;;;;;;;-141.02;100.00;55844.97;5074140;28;20195;-74
2022/07/09 10:42:18;;;;;;;21.58;20.27;;;;;;;-141.02;100.00;55844.97;5073992;28;20226;-74
2022/07/09 10:44:46;;;;;;;21.60;20.40;;;;;;;-141.02;100.00;55844.97;5073783;28;20183;-74
2022/07/09 10:47:13;;;;;;;21.30;20.10;;;;;;;-141.02;100.00;55844.97;5073652;28;20190;-73
2022/07/09 10:49:40;;;;;;;20.00;18.90;;;;;;;-141.02;100.00;55844.97;5073654;28;20676;-74
2022/07/09 10:52:09;;;;;;;20.17;19.08;;;;;;;-141.02;100.00;55844.97;5073920;28;20209;-73
2022/07/09 10:54:47;;;;;;;20.00;18.90;;;;;;;-141.02;100.00;55844.97;5073557;28;20198;-73
2022/07/09 10:57:14;;;;;;;19.35;18.35;;;;;;;-141.02;100.00;55844.97;5033619;28;20712;-74
2022/07/09 10:59:47;;;;;;;20.75;19.55;;;;;;;-141.02;100.00;55844.97;5033574;28;20741;-74
2022/07/09 11:02:19;;;;;;;22.83;21.42;;;;;;;-141.02;100.00;55844.97;5033789;28;20216;-74